createdAt,value
2019-04-24T00:01:44.720Z,13.13
2019-04-24T00:06:52.230Z,12.90
2019-04-24T00:09:18.327Z,12.60
2019-04-24T00:12:04.244Z,15.00
2019-04-24T00:19:39.407Z,13.50
2019-04-24T00:22:10.450Z,13.57
2019-04-24T00:24:57.101Z,13.80
2019-04-24T00:29:49.598Z,14.80
2019-04-24T00:34:32.475Z,13.50
2019-04-24T00:37:10.039Z,14.40
2019-04-24T00:39:36.577Z,14.50
2019-04-24T00:47:13.620Z,14.63
2019-04-24T00:52:05.872Z,13.97
2019-04-24T00:54:33.784Z,13.93
2019-04-24T00:57:20.382Z,13.20
2019-04-24T00:59:36.422Z,13.40
2019-04-24T01:02:15.785Z,14.13
2019-04-24T01:10:21.317Z,13.43
2019-04-24T01:12:54.896Z,14.60
2019-04-24T01:15:22.124Z,13.37
2019-04-24T01:17:49.400Z,14.80
2019-04-24T01:20:27.468Z,14.03
2019-04-24T01:22:54.189Z,13.30
2019-04-24T01:25:30.173Z,15.00
2019-04-24T01:28:02.721Z,14.90
2019-04-24T01:33:16.530Z,13.50
2019-04-24T01:35:42.119Z,13.60
2019-04-24T01:38:19.575Z,13.87
2019-04-24T01:40:52.296Z,13.90
2019-04-24T01:43:30.113Z,15.70
2019-04-24T01:45:58.753Z,14.43
2019-04-24T01:48:26.306Z,13.97
2019-04-24T01:51:07.513Z,14.40
2019-04-24T01:53:18.804Z,13.90
2019-04-24T01:55:45.803Z,13.73
2019-04-24T02:01:02.160Z,13.53
2019-04-24T02:03:19.615Z,15.60
2019-04-24T02:06:03.720Z,16.70
2019-04-24T02:08:31.277Z,15.00
2019-04-24T02:16:10.328Z,14.23
2019-04-24T02:18:45.808Z,14.53
2019-04-24T02:23:36.365Z,14.50
2019-04-24T02:26:19.418Z,15.83
2019-04-24T02:28:37.463Z,14.87
2019-04-24T02:34:00.472Z,13.93
2019-04-24T02:36:33.702Z,15.17
2019-04-24T02:42:19.304Z,13.90
2019-04-24T02:44:52.570Z,12.67
2019-04-24T02:49:43.149Z,14.60
2019-04-24T02:52:03.708Z,15.93
2019-04-24T03:04:35.708Z,14.17
2019-04-24T03:09:58.885Z,14.53
2019-04-24T03:15:24.018Z,14.80
2019-04-24T03:25:09.144Z,14.80
2019-04-24T03:27:53.949Z,15.00
2019-04-24T03:30:34.734Z,14.40
2019-04-24T03:36:09.871Z,14.40
2019-04-24T03:38:18.822Z,14.73
2019-04-24T03:45:34.260Z,15.20
2019-04-24T03:53:16.462Z,14.70
2019-04-24T03:55:49.613Z,15.03
2019-04-24T03:58:19.246Z,14.37
2019-04-24T04:00:50.107Z,15.47
2019-04-24T04:03:35.496Z,14.60
2019-04-24T04:05:40.541Z,13.43
2019-04-24T04:08:42.199Z,15.73
2019-04-24T04:16:05.813Z,15.33
2019-04-24T04:18:41.749Z,16.87
2019-04-24T04:34:41.882Z,18.50
2019-04-24T04:39:32.683Z,16.57
2019-04-24T04:47:18.465Z,16.17
2019-04-24T04:49:59.069Z,17.47
2019-04-24T04:52:18.333Z,17.70
2019-04-24T04:57:13.604Z,17.63
2019-04-24T04:59:48.498Z,18.20
2019-04-24T05:07:27.203Z,18.27
2019-04-24T05:12:19.617Z,17.13
2019-04-24T05:19:48.927Z,16.97
2019-04-24T05:22:18.939Z,17.80
2019-04-24T05:27:38.290Z,16.00
2019-04-24T05:35:43.910Z,16.93
2019-04-24T05:38:34.600Z,17.27
2019-04-24T05:43:35.159Z,16.80
2019-04-24T05:45:59.903Z,17.43
2019-04-24T05:48:35.761Z,16.80
2019-04-24T05:50:57.538Z,16.10
2019-04-24T05:53:55.568Z,17.40
2019-04-24T05:56:26.100Z,16.80
2019-04-24T05:58:45.974Z,16.73
2019-04-24T06:01:29.113Z,17.00
2019-04-24T06:04:12.480Z,16.77
2019-04-24T06:09:34.832Z,16.90
2019-04-24T06:12:28.020Z,17.10
2019-04-24T06:14:52.659Z,17.00
2019-04-24T06:17:40.090Z,17.10
2019-04-24T06:20:35.036Z,17.10
2019-04-24T06:22:56.461Z,17.67
2019-04-24T06:25:32.677Z,17.63
2019-04-24T06:27:46.001Z,17.53
2019-04-24T06:30:17.395Z,17.73
2019-04-24T06:32:37.527Z,15.80
2019-04-24T06:40:57.049Z,15.63
2019-04-24T06:45:49.097Z,15.53
2019-04-24T06:48:15.558Z,15.33
2019-04-24T06:53:11.256Z,14.97
2019-04-24T06:55:51.390Z,15.53
2019-04-24T06:58:26.029Z,15.60
2019-04-24T07:00:50.566Z,14.57
2019-04-24T07:03:59.190Z,15.40
2019-04-24T07:06:35.106Z,14.60
2019-04-24T07:09:15.782Z,15.17
2019-04-24T07:11:37.105Z,14.90
2019-04-24T07:19:36.116Z,14.57
2019-04-24T07:22:08.680Z,15.43
2019-04-24T07:24:48.324Z,13.30
2019-04-24T07:33:01.922Z,14.73
2019-04-24T07:38:08.797Z,12.40
2019-04-24T07:40:45.973Z,13.17
2019-04-24T07:43:15.271Z,13.27
2019-04-24T07:45:40.048Z,15.40
2019-04-24T07:48:02.992Z,13.93
2019-04-24T07:51:01.463Z,12.97
2019-04-24T07:53:42.604Z,14.10
2019-04-24T07:56:11.174Z,13.83
2019-04-24T07:58:46.038Z,14.50
2019-04-24T08:01:11.558Z,14.00
2019-04-24T08:03:42.088Z,14.67
2019-04-24T08:06:02.695Z,14.67
2019-04-24T08:08:44.801Z,14.30
2019-04-24T08:10:57.693Z,14.17
2019-04-24T08:13:36.090Z,14.13
2019-04-24T08:18:27.746Z,13.23
2019-04-24T08:20:58.698Z,15.00
2019-04-24T08:31:21.608Z,13.80
2019-04-24T08:34:22.500Z,13.70
2019-04-24T08:36:06.514Z,13.40
2019-04-24T08:41:44.392Z,13.33
2019-04-24T08:44:14.263Z,12.73
2019-04-24T08:46:42.430Z,12.17
2019-04-24T08:51:43.058Z,13.07
2019-04-24T08:56:59.354Z,12.60
2019-04-24T08:59:40.445Z,12.50
2019-04-24T09:07:18.412Z,10.20
2019-04-24T09:10:31.344Z,11.53
2019-04-24T09:15:17.455Z,10.47
2019-04-24T09:30:41.975Z,9.80
2019-04-24T09:36:12.470Z,9.40
2019-04-24T09:38:26.076Z,9.60
2019-04-24T09:41:13.899Z,9.20
2019-04-24T09:46:02.789Z,10.17
2019-04-24T09:48:45.190Z,10.23
2019-04-24T09:53:45.698Z,8.60
2019-04-24T09:56:28.778Z,8.50
2019-04-24T10:01:27.674Z,8.50
2019-04-24T10:06:49.134Z,9.33
2019-04-24T10:08:46.769Z,8.43
2019-04-24T10:11:33.797Z,7.77
2019-04-24T10:16:55.526Z,7.00
2019-04-24T10:21:53.494Z,6.10
2019-04-24T10:24:26.646Z,5.80
2019-04-24T10:27:05.043Z,6.53
2019-04-24T10:29:37.551Z,6.73
2019-04-24T10:35:08.317Z,6.23
2019-04-24T10:40:31.016Z,6.67
2019-04-24T10:45:41.066Z,4.93
2019-04-24T10:48:32.031Z,5.73
2019-04-24T10:56:17.293Z,5.17
2019-04-24T11:04:17.969Z,5.27
2019-04-24T11:06:46.646Z,4.60
2019-04-24T11:09:12.571Z,4.87
2019-04-24T11:12:07.346Z,4.80
2019-04-24T11:14:35.561Z,4.60
2019-04-24T11:17:15.767Z,5.20
2019-04-24T11:24:55.420Z,6.23
2019-04-24T11:27:20.716Z,5.03
2019-04-24T11:30:00.775Z,4.77
2019-04-24T11:32:39.504Z,4.10
2019-04-24T11:35:41.452Z,5.10
2019-04-24T11:40:32.957Z,5.77
2019-04-24T11:42:45.002Z,3.87
2019-04-24T11:45:27.773Z,5.07
2019-04-24T11:48:08.660Z,5.00
2019-04-24T11:53:10.678Z,4.43
2019-04-24T11:58:23.861Z,5.70
2019-04-24T12:00:24.239Z,6.00
2019-04-24T12:03:03.737Z,5.53
2019-04-24T12:05:49.449Z,5.37
2019-04-24T12:10:57.496Z,5.13
2019-04-24T12:13:35.190Z,4.73
2019-04-24T12:16:09.332Z,5.10
2019-04-24T12:18:47.272Z,4.87
2019-04-24T12:24:01.706Z,5.43
2019-04-24T12:29:03.834Z,5.07
2019-04-24T12:31:18.357Z,5.10
2019-04-24T12:44:03.714Z,4.97
2019-04-24T12:46:39.605Z,4.70
2019-04-24T12:49:02.542Z,4.90
2019-04-24T12:51:37.680Z,4.60
2019-04-24T12:54:17.030Z,5.07
2019-04-24T12:57:12.601Z,4.63
2019-04-24T12:59:45.475Z,4.90
2019-04-24T13:02:12.992Z,5.07
2019-04-24T13:04:56.360Z,4.80
2019-04-24T13:07:11.840Z,5.03
2019-04-24T13:09:57.848Z,5.93
2019-04-24T13:12:51.306Z,4.60
2019-04-24T13:18:11.322Z,4.97
2019-04-24T13:20:17.515Z,5.07
2019-04-24T13:22:49.266Z,4.60
2019-04-24T13:25:41.260Z,4.60
2019-04-24T13:28:28.635Z,4.10
2019-04-24T13:31:08.852Z,4.73
2019-04-24T13:33:28.853Z,5.33
2019-04-24T13:35:54.984Z,4.60
2019-04-24T13:40:55.053Z,4.23
2019-04-24T13:46:06.401Z,3.33
2019-04-24T13:48:43.262Z,4.23
2019-04-24T13:51:02.414Z,3.93
2019-04-24T13:56:00.094Z,5.17
2019-04-24T14:01:18.063Z,4.40
2019-04-24T14:03:52.727Z,4.20
2019-04-24T14:06:19.383Z,3.70
2019-04-24T14:08:51.913Z,4.07
2019-04-24T14:11:41.128Z,4.30
2019-04-24T14:13:44.427Z,4.10
2019-04-24T14:16:16.871Z,3.73
2019-04-24T14:18:46.177Z,3.97
2019-04-24T14:21:11.414Z,3.70
2019-04-24T14:28:50.042Z,3.83
2019-04-24T14:31:44.033Z,4.57
2019-04-24T14:36:27.542Z,3.57
2019-04-24T14:39:08.170Z,4.40
2019-04-24T14:41:23.749Z,4.07
2019-04-24T14:46:53.676Z,3.33
2019-04-24T14:49:28.013Z,4.17
2019-04-24T14:59:17.651Z,2.90
2019-04-24T15:01:56.338Z,3.63
2019-04-24T15:04:13.680Z,3.50
2019-04-24T15:06:51.082Z,3.73
2019-04-24T15:12:06.587Z,4.07
2019-04-24T15:14:27.693Z,3.20
2019-04-24T15:19:43.978Z,3.53
2019-04-24T15:22:13.542Z,4.07
2019-04-24T15:27:06.905Z,3.87
2019-04-24T15:29:35.203Z,4.53
2019-04-24T15:34:47.233Z,4.47
2019-04-24T15:37:15.580Z,4.10
2019-04-24T15:39:37.572Z,4.30
2019-04-24T15:42:09.236Z,4.60
2019-04-24T15:44:41.990Z,5.07
2019-04-24T15:47:24.070Z,4.03
2019-04-24T15:49:38.377Z,4.30
2019-04-24T15:51:36.201Z,3.23
2019-04-24T15:54:05.047Z,4.13
2019-04-24T15:56:33.507Z,4.00
2019-04-24T15:59:18.063Z,3.80
2019-04-24T16:02:04.334Z,3.90
2019-04-24T16:04:36.380Z,4.43
2019-04-24T16:06:36.983Z,4.37
2019-04-24T16:09:16.964Z,4.30
2019-04-24T16:11:45.243Z,4.20
2019-04-24T16:14:37.231Z,3.27
2019-04-24T16:17:09.316Z,4.67
2019-04-24T16:19:44.088Z,4.33
2019-04-24T16:22:09.352Z,3.00
2019-04-24T16:24:45.274Z,3.30
2019-04-24T16:27:14.554Z,4.03
2019-04-24T16:29:39.194Z,3.87
2019-04-24T16:34:39.127Z,3.43
2019-04-24T16:39:58.816Z,4.43
2019-04-24T16:44:54.438Z,3.77
2019-04-24T16:47:40.687Z,3.57
2019-04-24T16:50:20.371Z,3.60
2019-04-24T16:52:15.737Z,3.90
2019-04-24T16:54:59.394Z,3.30
2019-04-24T16:57:18.397Z,3.73
2019-04-24T16:59:52.625Z,5.30
2019-04-24T17:02:18.520Z,5.07
2019-04-24T17:07:45.098Z,4.83
2019-04-24T17:10:05.251Z,3.67
2019-04-24T17:12:32.506Z,4.13
2019-04-24T17:17:43.101Z,4.60
2019-04-24T17:20:08.191Z,4.37
2019-04-24T17:22:50.780Z,4.30
2019-04-24T17:25:08.518Z,5.30
2019-04-24T17:27:45.000Z,4.13
2019-04-24T17:32:45.468Z,5.03
2019-04-24T17:37:15.030Z,5.07
2019-04-24T17:39:57.042Z,5.77
2019-04-24T17:42:36.387Z,6.30
2019-04-24T17:50:25.123Z,5.83
2019-04-24T17:55:23.651Z,5.90
2019-04-24T17:59:59.715Z,5.80
2019-04-24T18:02:28.188Z,7.20
2019-04-24T18:04:56.600Z,6.07
2019-04-24T18:07:25.338Z,6.53
2019-04-24T18:09:54.581Z,6.03
2019-04-24T18:12:24.637Z,6.80
2019-04-24T18:14:53.083Z,6.97
2019-04-24T18:17:22.221Z,6.47
2019-04-24T18:19:50.763Z,6.43
2019-04-24T18:22:19.103Z,6.17
2019-04-24T18:24:52.152Z,6.10
2019-04-24T18:27:22.410Z,6.30
2019-04-24T18:29:51.444Z,5.80
2019-04-24T18:32:22.345Z,6.77
2019-04-24T18:34:52.055Z,6.77
2019-04-24T18:37:23.081Z,5.90
2019-04-24T18:39:51.585Z,6.53
2019-04-24T18:42:21.292Z,5.67
2019-04-24T18:44:49.804Z,7.07
2019-04-24T18:47:18.598Z,7.70
2019-04-24T18:49:46.969Z,6.30
2019-04-24T18:52:15.319Z,6.87
2019-04-24T18:54:49.113Z,6.53
2019-04-24T18:57:16.949Z,6.40
2019-04-24T18:59:45.223Z,6.20
2019-04-24T19:02:14.095Z,6.53
2019-04-24T19:04:42.545Z,7.23
2019-04-24T19:07:11.081Z,6.90
2019-04-24T19:09:41.840Z,6.70
2019-04-24T19:12:12.586Z,7.70
2019-04-24T19:14:41.670Z,7.67
2019-04-24T19:17:11.621Z,6.90
2019-04-24T19:19:41.479Z,7.10
2019-04-24T19:22:11.707Z,7.23
2019-04-24T19:24:42.903Z,6.73
2019-04-24T19:27:11.255Z,5.63
2019-04-24T19:29:39.787Z,6.73
2019-04-24T19:32:09.031Z,6.57
2019-04-24T19:34:37.471Z,6.83
2019-04-24T19:37:06.048Z,6.77
2019-04-24T19:39:34.404Z,7.40
2019-04-24T19:42:02.687Z,7.03
2019-04-24T19:44:31.512Z,7.50
2019-04-24T19:47:00.127Z,7.73
2019-04-24T19:49:28.446Z,6.00
2019-04-24T19:51:56.736Z,12.80
2019-04-24T19:54:25.055Z,4.00
2019-04-24T19:56:53.406Z,7.90
2019-04-24T19:59:23.007Z,8.07
2019-04-24T20:01:53.153Z,8.77
2019-04-24T20:04:23.172Z,5.80
2019-04-24T20:06:51.623Z,5.07
2019-04-24T20:09:24.607Z,4.10
2019-04-24T20:11:54.590Z,4.07
2019-04-24T20:14:23.212Z,4.53
2019-04-24T20:16:51.721Z,3.57
2019-04-24T20:19:22.491Z,3.60
2019-04-24T20:21:51.737Z,3.73
2019-04-24T20:24:20.256Z,1.70
2019-04-24T20:26:48.667Z,2.10
2019-04-24T20:29:17.701Z,2.20
2019-04-24T20:31:46.593Z,1.50
2019-04-24T20:34:14.894Z,1.30
2019-04-24T20:36:43.187Z,1.13
2019-04-24T20:39:13.076Z,1.00
2019-04-24T20:41:42.292Z,1.00
2019-04-24T20:44:11.571Z,0.83
2019-04-24T20:46:41.834Z,1.23
2019-04-24T20:49:11.235Z,0.93
2019-04-24T20:51:41.400Z,0.80
2019-04-24T20:54:10.422Z,0.63
2019-04-24T20:56:38.705Z,0.50
2019-04-24T20:59:07.042Z,0.87
2019-04-24T21:01:36.749Z,0.70
2019-04-24T21:04:05.211Z,0.80
2019-04-24T21:06:37.936Z,0.57
2019-04-24T21:09:17.444Z,1.10
2019-04-24T21:11:41.864Z,1.60
2019-04-24T21:14:10.288Z,1.13
2019-04-24T21:16:38.694Z,1.13
2019-04-24T21:19:07.584Z,1.00
2019-04-24T21:21:35.963Z,0.90
2019-04-24T21:24:04.493Z,0.87
2019-04-24T21:26:33.334Z,1.40
2019-04-24T21:29:03.345Z,0.83
2019-04-24T21:31:32.543Z,1.10
2019-04-24T21:34:01.076Z,1.50
2019-04-24T21:36:29.828Z,0.90
2019-04-24T21:38:58.124Z,1.23
2019-04-24T21:41:27.226Z,0.90
2019-04-24T21:43:55.621Z,0.97
2019-04-24T21:46:23.956Z,1.50
2019-04-24T21:48:52.477Z,0.97
2019-04-24T21:51:20.934Z,1.37
2019-04-24T21:53:49.331Z,1.30
2019-04-24T21:56:17.811Z,1.43
2019-04-24T21:58:46.097Z,1.70
2019-04-24T22:01:16.529Z,1.47
2019-04-24T22:03:46.520Z,1.77
2019-04-24T22:06:16.736Z,1.43
2019-04-24T22:08:45.032Z,0.93
2019-04-24T22:11:14.132Z,1.10
2019-04-24T22:13:43.336Z,1.33
2019-04-24T22:16:12.181Z,1.40
2019-04-24T22:18:41.999Z,0.97
2019-04-24T22:21:15.107Z,0.90
2019-04-24T22:23:57.404Z,1.00
2019-04-24T22:26:39.582Z,0.80
2019-04-24T22:29:08.085Z,1.10
2019-04-24T22:31:38.011Z,1.23
2019-04-24T22:34:17.237Z,1.30
2019-04-24T22:36:45.793Z,1.10
2019-04-24T22:39:25.406Z,1.20
2019-04-24T22:41:54.030Z,0.77
2019-04-24T22:44:22.423Z,1.27
2019-04-24T22:46:50.832Z,1.20
2019-04-24T22:49:19.276Z,0.97
2019-04-24T22:51:47.565Z,1.20
2019-04-24T22:54:15.929Z,1.13
2019-04-24T22:56:54.830Z,1.20
2019-04-24T22:59:14.230Z,1.50
2019-04-24T23:01:54.584Z,1.50
2019-04-24T23:04:13.273Z,1.37
2019-04-24T23:06:42.510Z,1.03
2019-04-24T23:09:12.640Z,1.47
2019-04-24T23:11:41.805Z,1.20
2019-04-24T23:14:11.250Z,1.20
2019-04-24T23:16:39.571Z,1.00
2019-04-24T23:19:07.895Z,1.57
2019-04-24T23:21:39.983Z,1.20
2019-04-24T23:24:15.713Z,1.53
2019-04-24T23:26:46.145Z,1.33
2019-04-24T23:29:22.259Z,1.30
2019-04-24T23:31:52.265Z,0.93
2019-04-24T23:34:24.405Z,2.33
2019-04-24T23:36:52.681Z,1.47
2019-04-24T23:39:21.223Z,1.90
2019-04-24T23:41:50.133Z,1.70
2019-04-24T23:44:18.583Z,1.83
2019-04-24T23:46:47.028Z,1.80
2019-04-24T23:49:15.401Z,2.27
2019-04-24T23:51:43.761Z,1.73
2019-04-24T23:54:12.952Z,1.83
2019-04-24T23:56:42.005Z,2.20
2019-04-24T23:59:11.288Z,2.03
